createdAt,value
2018-11-04T00:02:24.911Z,74.20
2018-11-04T00:04:52.366Z,74.20
2018-11-04T00:07:19.896Z,74.20
2018-11-04T00:09:47.386Z,74.20
2018-11-04T00:12:14.857Z,74.30
2018-11-04T00:14:42.641Z,74.40
2018-11-04T00:17:10.123Z,74.50
2018-11-04T00:19:37.560Z,73.40
2018-11-04T00:22:05.120Z,74.40
2018-11-04T00:24:32.655Z,74.40
2018-11-04T00:27:01.477Z,74.50
2018-11-04T00:29:28.913Z,74.60
2018-11-04T00:31:56.469Z,74.40
2018-11-04T00:34:23.958Z,74.30
2018-11-04T00:36:51.408Z,74.50
2018-11-04T00:39:18.818Z,74.50
2018-11-04T00:41:46.240Z,74.60
2018-11-04T00:44:13.626Z,74.50
2018-11-04T00:46:41.067Z,74.50
2018-11-04T00:49:08.486Z,74.70
2018-11-04T00:51:35.946Z,74.50
2018-11-04T00:54:03.760Z,74.50
2018-11-04T00:56:31.249Z,73.30
2018-11-04T00:58:58.740Z,73.40
2018-11-04T01:01:26.144Z,73.30
2018-11-04T01:03:53.525Z,74.20
2018-11-04T01:06:20.920Z,74.40
2018-11-04T01:08:48.408Z,73.60
2018-11-04T01:11:15.742Z,73.50
2018-11-04T01:13:43.179Z,73.30
2018-11-04T01:16:10.602Z,74.20
2018-11-04T01:18:38.064Z,73.20
2018-11-04T01:21:05.515Z,73.20
2018-11-04T01:23:33.054Z,74.30
2018-11-04T01:26:00.513Z,74.30
2018-11-04T01:28:27.957Z,74.40
2018-11-04T01:30:55.339Z,74.50
2018-11-04T01:33:22.748Z,74.50
2018-11-04T01:35:50.178Z,74.50
2018-11-04T01:38:17.602Z,74.60
2018-11-04T01:40:44.994Z,74.80
2018-11-04T01:43:12.363Z,75.20
2018-11-04T01:45:39.820Z,74.70
2018-11-04T01:48:07.236Z,74.70
2018-11-04T01:50:34.738Z,74.80
2018-11-04T01:53:02.222Z,74.70
2018-11-04T01:55:29.654Z,74.80
2018-11-04T01:57:57.146Z,74.60
2018-11-04T02:00:24.566Z,74.80
2018-11-04T02:02:52.023Z,74.90
2018-11-04T02:05:19.445Z,74.90
2018-11-04T02:07:46.844Z,74.70
2018-11-04T02:10:14.731Z,74.80
2018-11-04T02:12:42.134Z,74.90
2018-11-04T02:15:11.089Z,75.60
2018-11-04T02:17:38.555Z,75.00
2018-11-04T02:20:07.009Z,74.90
2018-11-04T02:22:34.453Z,75.10
2018-11-04T02:25:01.892Z,75.10
2018-11-04T02:27:29.365Z,75.20
2018-11-04T02:29:56.759Z,75.10
2018-11-04T02:32:24.169Z,75.10
2018-11-04T02:34:51.637Z,75.10
2018-11-04T02:37:19.073Z,75.10
2018-11-04T02:39:46.459Z,75.20
2018-11-04T02:42:14.138Z,75.20
2018-11-04T02:44:41.506Z,75.10
2018-11-04T02:47:09.033Z,75.20
2018-11-04T02:49:36.404Z,75.10
2018-11-04T02:52:03.970Z,75.00
2018-11-04T02:54:31.489Z,75.10
2018-11-04T02:56:58.967Z,75.20
2018-11-04T02:59:26.377Z,75.30
2018-11-04T03:01:53.929Z,75.10
2018-11-04T03:04:21.242Z,75.10
2018-11-04T03:06:48.725Z,75.20
2018-11-04T03:09:16.290Z,75.30
2018-11-04T03:11:43.649Z,75.10
2018-11-04T03:14:11.115Z,75.30
2018-11-04T03:16:38.486Z,75.50
2018-11-04T03:19:05.897Z,75.40
2018-11-04T03:21:33.281Z,75.20
2018-11-04T03:24:00.692Z,75.10
2018-11-04T03:26:28.209Z,75.20
2018-11-04T03:28:55.755Z,75.70
2018-11-04T03:31:23.190Z,75.70
2018-11-04T03:33:50.839Z,75.70
2018-11-04T03:36:18.757Z,75.60
2018-11-04T03:38:46.200Z,75.80
2018-11-04T03:41:13.726Z,75.70
2018-11-04T03:43:41.119Z,75.60
2018-11-04T03:46:08.518Z,75.80
2018-11-04T03:48:35.926Z,76.00
2018-11-04T03:51:03.407Z,75.90
2018-11-04T03:53:31.335Z,75.90
2018-11-04T03:55:58.746Z,75.60
2018-11-04T03:58:26.132Z,75.80
2018-11-04T04:00:53.706Z,75.90
2018-11-04T04:03:21.293Z,76.10
2018-11-04T04:05:48.712Z,76.10
2018-11-04T04:08:16.157Z,75.80
2018-11-04T04:10:43.535Z,75.90
2018-11-04T04:13:11.052Z,75.80
2018-11-04T04:15:38.477Z,75.90
2018-11-04T04:18:06.114Z,75.50
2018-11-04T04:20:33.574Z,76.40
2018-11-04T04:23:01.022Z,75.80
2018-11-04T04:25:28.439Z,76.20
2018-11-04T04:27:55.854Z,76.00
2018-11-04T04:30:23.458Z,76.00
2018-11-04T04:32:50.917Z,76.10
2018-11-04T04:35:18.369Z,76.10
2018-11-04T04:37:46.486Z,75.90
2018-11-04T04:40:13.862Z,76.40
2018-11-04T04:42:41.269Z,76.40
2018-11-04T04:45:08.698Z,76.20
2018-11-04T04:47:36.208Z,76.40
2018-11-04T04:50:04.079Z,76.50
2018-11-04T04:52:31.514Z,76.30
2018-11-04T04:54:58.933Z,76.50
2018-11-04T04:57:26.667Z,76.60
2018-11-04T04:59:54.108Z,76.70
2018-11-04T05:02:21.575Z,75.60
2018-11-04T05:04:49.089Z,75.30
2018-11-04T05:07:16.526Z,76.20
2018-11-04T05:09:43.925Z,75.50
2018-11-04T05:12:11.328Z,76.80
2018-11-04T05:14:38.768Z,75.70
2018-11-04T05:17:06.522Z,76.10
2018-11-04T05:19:33.986Z,76.00
2018-11-04T05:22:01.486Z,77.40
2018-11-04T05:24:29.118Z,76.40
2018-11-04T05:26:56.502Z,76.60
2018-11-04T05:29:23.955Z,76.80
2018-11-04T05:31:51.470Z,76.30
2018-11-04T05:34:18.879Z,77.50
2018-11-04T05:36:46.256Z,77.70
2018-11-04T05:39:13.750Z,76.80
2018-11-04T05:41:41.155Z,77.20
2018-11-04T05:44:08.780Z,77.00
2018-11-04T05:46:36.188Z,76.40
2018-11-04T05:49:03.602Z,76.90
2018-11-04T05:51:31.224Z,76.30
2018-11-04T05:53:58.585Z,76.70
2018-11-04T05:56:26.034Z,77.10
2018-11-04T05:58:53.453Z,76.50
2018-11-04T06:01:20.907Z,76.90
2018-11-04T06:03:48.315Z,76.90
2018-11-04T06:06:15.767Z,77.20
2018-11-04T06:08:43.144Z,76.90
2018-11-04T06:11:10.585Z,77.10
2018-11-04T06:13:38.017Z,76.90
2018-11-04T06:16:05.742Z,76.90
2018-11-04T06:18:33.518Z,76.90
2018-11-04T06:21:00.965Z,77.40
2018-11-04T06:23:28.419Z,77.00
2018-11-04T06:25:55.768Z,76.70
2018-11-04T06:28:23.177Z,76.60
2018-11-04T06:30:50.604Z,77.30
2018-11-04T06:33:18.062Z,76.90
2018-11-04T06:35:45.516Z,77.90
2018-11-04T06:38:12.927Z,77.10
2018-11-04T06:40:40.394Z,76.70
2018-11-04T06:43:07.810Z,77.20
2018-11-04T06:45:35.363Z,76.80
2018-11-04T06:48:02.751Z,77.40
2018-11-04T06:50:30.191Z,77.70
2018-11-04T06:52:57.587Z,78.20
2018-11-04T06:55:24.970Z,77.60
2018-11-04T06:57:52.396Z,77.90
2018-11-04T07:00:19.798Z,78.10
2018-11-04T07:02:47.228Z,77.80
2018-11-04T07:05:15.443Z,77.80
2018-11-04T07:07:43.599Z,78.00
2018-11-04T07:10:11.114Z,77.80
2018-11-04T07:12:38.706Z,78.60
2018-11-04T07:15:06.189Z,77.90
2018-11-04T07:17:33.638Z,77.40
2018-11-04T07:20:01.210Z,77.10
2018-11-04T07:22:28.554Z,78.00
2018-11-04T07:24:55.978Z,78.70
2018-11-04T07:27:23.371Z,78.60
2018-11-04T07:29:51.502Z,78.90
2018-11-04T07:32:18.900Z,79.30
2018-11-04T07:34:46.319Z,79.10
2018-11-04T07:37:13.771Z,79.40
2018-11-04T07:39:41.202Z,79.70
2018-11-04T07:42:08.641Z,79.80
2018-11-04T07:44:36.072Z,79.70
2018-11-04T07:47:03.642Z,79.30
2018-11-04T07:49:31.098Z,78.80
2018-11-04T07:51:58.502Z,79.30
2018-11-04T07:54:25.890Z,79.40
2018-11-04T07:56:53.361Z,79.30
2018-11-04T07:59:20.751Z,78.90
2018-11-04T08:01:48.677Z,79.10
2018-11-04T08:04:16.357Z,79.00
2018-11-04T08:06:44.420Z,79.50
2018-11-04T08:09:12.089Z,79.70
2018-11-04T08:11:40.948Z,80.10
2018-11-04T08:14:12.959Z,79.50
2018-11-04T08:16:42.122Z,79.80
2018-11-04T08:19:10.347Z,79.80
2018-11-04T08:21:38.355Z,79.60
2018-11-04T08:24:06.506Z,79.60
2018-11-04T08:26:37.938Z,79.70
2018-11-04T08:29:06.169Z,79.60
2018-11-04T08:31:33.617Z,79.30
2018-11-04T08:34:09.105Z,78.90
2018-11-04T08:36:37.758Z,79.00
2018-11-04T08:39:12.071Z,78.90
2018-11-04T08:41:41.907Z,79.00
2018-11-04T08:44:10.158Z,79.70
2018-11-04T08:46:37.636Z,80.00
2018-11-04T08:49:06.575Z,80.10
2018-11-04T08:51:35.584Z,80.00
2018-11-04T08:54:04.510Z,80.30
2018-11-04T08:56:32.759Z,80.90
2018-11-04T08:59:00.490Z,81.00
2018-11-04T09:01:30.413Z,80.80
2018-11-04T09:03:59.287Z,80.90
2018-11-04T09:06:28.079Z,80.70
2018-11-04T09:08:55.886Z,80.50
2018-11-04T09:11:23.621Z,80.70
2018-11-04T09:13:51.774Z,80.90
2018-11-04T09:16:19.714Z,81.30
2018-11-04T09:18:58.739Z,80.50
2018-11-04T09:21:26.348Z,80.90
2018-11-04T09:23:54.646Z,81.20
2018-11-04T09:26:23.371Z,81.30
2018-11-04T09:28:52.126Z,81.10
2018-11-04T09:31:22.357Z,81.10
2018-11-04T09:33:52.892Z,81.00
2018-11-04T09:36:20.562Z,81.10
2018-11-04T09:38:47.871Z,81.20
2018-11-04T09:41:16.457Z,81.70
2018-11-04T09:43:44.305Z,80.90
2018-11-04T09:46:11.884Z,81.10
2018-11-04T09:48:43.924Z,81.00
2018-11-04T09:51:12.287Z,80.80
2018-11-04T09:53:40.617Z,81.00
2018-11-04T09:56:08.226Z,81.20
2018-11-04T09:58:36.311Z,81.30
2018-11-04T10:01:04.869Z,80.90
2018-11-04T10:03:33.074Z,81.20
2018-11-04T10:06:00.672Z,80.90
2018-11-04T10:08:29.025Z,81.00
2018-11-04T10:10:56.684Z,81.10
2018-11-04T10:13:25.217Z,80.60
2018-11-04T10:15:53.939Z,80.90
2018-11-04T10:18:21.632Z,81.00
2018-11-04T10:20:49.458Z,80.90
2018-11-04T10:23:16.832Z,80.90
2018-11-04T10:25:44.880Z,80.70
2018-11-04T10:28:14.180Z,80.60
2018-11-04T10:30:45.989Z,80.20
2018-11-04T10:33:14.087Z,80.40
2018-11-04T10:35:43.024Z,80.60
2018-11-04T10:38:11.331Z,80.60
2018-11-04T10:40:41.466Z,80.30
2018-11-04T10:43:10.018Z,80.30
2018-11-04T10:45:38.494Z,80.40
2018-11-04T10:48:06.703Z,80.10
2018-11-04T10:50:35.543Z,79.80
2018-11-04T10:53:03.703Z,79.90
2018-11-04T10:55:32.123Z,79.90
2018-11-04T10:58:03.898Z,79.90
2018-11-04T11:00:38.105Z,80.00
2018-11-04T11:03:06.272Z,79.70
2018-11-04T11:05:33.829Z,79.70
2018-11-04T11:08:07.738Z,79.70
2018-11-04T11:10:35.762Z,79.60
2018-11-04T11:13:03.259Z,79.30
2018-11-04T11:15:31.593Z,79.50
2018-11-04T11:18:04.261Z,79.40
2018-11-04T11:20:32.373Z,79.30
2018-11-04T11:23:00.672Z,78.90
2018-11-04T11:25:29.105Z,78.90
2018-11-04T11:27:57.271Z,78.80
2018-11-04T11:30:24.802Z,78.30
2018-11-04T11:32:52.367Z,78.50
2018-11-04T11:35:19.947Z,78.60
2018-11-04T11:37:47.469Z,78.70
2018-11-04T11:40:15.350Z,78.20
2018-11-04T11:42:42.860Z,78.30
2018-11-04T11:45:11.739Z,78.50
2018-11-04T11:47:40.178Z,77.80
2018-11-04T11:50:10.545Z,77.60
2018-11-04T11:52:38.944Z,77.50
2018-11-04T11:55:08.363Z,77.40
2018-11-04T11:57:36.138Z,77.70
2018-11-04T12:00:05.990Z,77.80
2018-11-04T12:02:35.509Z,77.80
2018-11-04T12:05:07.145Z,77.50
2018-11-04T12:07:39.960Z,77.40
2018-11-04T12:10:10.364Z,77.40
2018-11-04T12:12:39.254Z,77.10
2018-11-04T12:15:10.038Z,77.00
2018-11-04T12:17:38.300Z,76.80
2018-11-04T12:20:07.546Z,77.00
2018-11-04T12:22:35.079Z,77.20
2018-11-04T12:25:04.081Z,76.80
2018-11-04T12:27:31.818Z,76.90
2018-11-04T12:30:00.568Z,77.10
2018-11-04T12:32:28.159Z,77.10
2018-11-04T12:34:55.691Z,77.10
2018-11-04T12:37:23.526Z,77.20
2018-11-04T12:39:51.652Z,77.00
2018-11-04T12:42:20.683Z,76.90
2018-11-04T12:44:48.442Z,77.00
2018-11-04T12:47:19.952Z,77.30
2018-11-04T12:49:48.200Z,77.40
2018-11-04T12:52:23.780Z,77.20
2018-11-04T12:55:03.967Z,76.80
2018-11-04T12:57:34.473Z,77.00
2018-11-04T13:00:03.304Z,77.40
2018-11-04T13:02:37.008Z,77.30
2018-11-04T13:05:12.592Z,77.20
2018-11-04T13:07:41.263Z,77.00
2018-11-04T13:10:12.929Z,76.70
2018-11-04T13:12:50.590Z,76.60
2018-11-04T13:15:22.159Z,76.20
2018-11-04T13:17:57.010Z,76.20
2018-11-04T13:20:24.678Z,76.10
2018-11-04T13:22:57.438Z,76.50
2018-11-04T13:25:25.594Z,76.60
2018-11-04T13:27:53.742Z,76.70
2018-11-04T13:30:21.427Z,76.70
2018-11-04T13:32:50.087Z,76.70
2018-11-04T13:35:18.414Z,76.80
2018-11-04T13:37:54.472Z,76.80
2018-11-04T13:43:43.897Z,76.70
2018-11-04T13:46:12.639Z,76.80
2018-11-04T13:48:44.582Z,77.30
2018-11-04T13:51:15.302Z,77.10
2018-11-04T13:53:43.557Z,77.00
2018-11-04T13:56:11.929Z,77.00
2018-11-04T13:58:40.253Z,77.20
2018-11-04T14:01:12.828Z,77.30
2018-11-04T14:03:41.453Z,77.20
2018-11-04T14:06:09.709Z,77.30
2018-11-04T14:08:37.706Z,77.10
2018-11-04T14:11:08.447Z,77.10
2018-11-04T14:13:39.398Z,77.10
2018-11-04T14:16:07.021Z,77.10
2018-11-04T14:18:34.683Z,77.30
2018-11-04T14:21:03.875Z,77.10
2018-11-04T14:23:32.356Z,77.30
2018-11-04T14:26:01.337Z,77.20
2018-11-04T14:28:30.362Z,77.20
2018-11-04T14:30:58.690Z,76.90
2018-11-04T14:33:27.020Z,76.80
2018-11-04T14:35:55.737Z,76.90
2018-11-04T14:38:23.918Z,77.00
2018-11-04T14:40:52.611Z,77.10
2018-11-04T14:43:20.152Z,77.30
2018-11-04T14:45:49.089Z,77.50
2018-11-04T14:48:21.255Z,77.40
2018-11-04T14:50:49.082Z,77.50
2018-11-04T14:53:18.111Z,77.20
2018-11-04T14:55:46.579Z,77.10
2018-11-04T14:58:21.430Z,77.10
2018-11-04T15:00:50.388Z,77.30
2018-11-04T15:03:18.518Z,77.40
2018-11-04T15:05:47.015Z,77.30
2018-11-04T15:08:28.017Z,77.20
2018-11-04T15:10:57.079Z,77.10
2018-11-04T15:13:30.244Z,77.30
2018-11-04T15:15:58.311Z,77.60
2018-11-04T15:18:26.135Z,77.70
2018-11-04T15:20:54.038Z,77.80
2018-11-04T15:23:23.096Z,77.70
2018-11-04T15:25:54.083Z,77.70
2018-11-04T15:28:22.635Z,77.70
2018-11-04T15:30:53.338Z,77.90
2018-11-04T15:33:20.807Z,77.90
2018-11-04T15:35:48.562Z,78.00
2018-11-04T15:38:17.336Z,77.80
2018-11-04T15:40:45.615Z,77.90
2018-11-04T15:43:13.589Z,78.30
2018-11-04T15:45:41.961Z,78.20
2018-11-04T15:48:09.578Z,78.10
2018-11-04T15:50:39.490Z,78.30
2018-11-04T15:53:08.424Z,78.30
2018-11-04T15:55:37.280Z,78.10
2018-11-04T15:58:05.401Z,78.40
2018-11-04T16:00:37.870Z,78.40
2018-11-04T16:03:08.039Z,78.60
2018-11-04T16:05:38.403Z,78.40
2018-11-04T16:08:06.705Z,78.60
2018-11-04T16:10:34.991Z,78.70
2018-11-04T16:13:07.887Z,78.70
2018-11-04T16:15:35.549Z,78.70
2018-11-04T16:18:08.115Z,78.80
2018-11-04T16:20:37.806Z,78.80
2018-11-04T16:23:05.625Z,78.90
2018-11-04T16:25:34.285Z,78.80
2018-11-04T16:28:06.505Z,79.00
2018-11-04T16:30:35.080Z,79.70
2018-11-04T16:33:03.350Z,79.10
2018-11-04T16:35:32.614Z,79.20
2018-11-04T16:38:04.981Z,78.90
2018-11-04T16:40:32.642Z,78.90
2018-11-04T16:43:02.106Z,79.00
2018-11-04T16:45:30.891Z,79.20
2018-11-04T16:48:00.106Z,79.40
2018-11-04T16:50:30.122Z,79.30
2018-11-04T16:52:58.462Z,79.30
2018-11-04T16:55:26.015Z,79.20
2018-11-04T16:57:54.251Z,79.30
2018-11-04T17:00:21.732Z,79.40
2018-11-04T17:02:51.491Z,79.30
2018-11-04T17:05:21.237Z,79.10
2018-11-04T17:07:56.822Z,79.30
2018-11-04T17:10:26.810Z,79.60
2018-11-04T17:12:54.299Z,79.50
2018-11-04T17:15:23.963Z,79.60
2018-11-04T17:17:51.663Z,79.60
2018-11-04T17:20:19.783Z,79.50
2018-11-04T17:22:50.693Z,79.10
2018-11-04T17:25:19.821Z,78.60
2018-11-04T17:27:47.913Z,79.20
2018-11-04T17:30:17.638Z,79.60
2018-11-04T17:32:47.251Z,79.60
2018-11-04T17:35:17.677Z,79.50
2018-11-04T17:37:48.016Z,80.10
2018-11-04T17:40:24.229Z,79.10
2018-11-04T17:43:01.909Z,79.10
2018-11-04T17:45:30.383Z,79.20
2018-11-04T17:47:58.353Z,79.30
2018-11-04T17:50:26.709Z,79.50
2018-11-04T17:52:55.125Z,79.30
2018-11-04T17:55:23.868Z,79.50
2018-11-04T17:57:52.592Z,79.60
2018-11-04T18:00:20.930Z,79.30
2018-11-04T18:02:49.408Z,79.10
2018-11-04T18:05:17.815Z,79.00
2018-11-04T18:07:46.952Z,79.40
2018-11-04T18:10:15.840Z,79.20
2018-11-04T18:12:47.522Z,79.50
2018-11-04T18:15:15.475Z,79.20
2018-11-04T18:17:46.842Z,79.00
2018-11-04T18:20:15.596Z,79.00
2018-11-04T18:22:43.208Z,78.80
2018-11-04T18:25:19.696Z,79.30
2018-11-04T18:27:52.166Z,79.30
2018-11-04T18:30:23.178Z,79.40
2018-11-04T18:32:52.671Z,79.30
2018-11-04T18:35:20.987Z,79.20
2018-11-04T18:37:53.594Z,79.10
2018-11-04T18:40:22.691Z,79.10
2018-11-04T18:43:04.395Z,78.70
2018-11-04T18:45:32.813Z,79.10
2018-11-04T18:48:01.615Z,79.00
2018-11-04T18:50:32.479Z,79.10
2018-11-04T18:53:00.462Z,79.10
2018-11-04T18:55:29.021Z,79.30
2018-11-04T18:57:59.448Z,79.10
2018-11-04T19:00:32.543Z,79.20
2018-11-04T19:03:00.586Z,78.90
2018-11-04T19:05:28.972Z,79.10
2018-11-04T19:07:56.564Z,79.20
2018-11-04T19:10:25.534Z,79.20
2018-11-04T19:12:55.501Z,79.40
2018-11-04T19:15:23.022Z,79.10
2018-11-04T19:18:00.116Z,79.00
2018-11-04T19:20:27.778Z,78.90
2018-11-04T19:22:57.054Z,78.90
2018-11-04T19:25:33.945Z,79.10
2018-11-04T19:28:04.139Z,79.00
2018-11-04T19:30:31.829Z,78.60
2018-11-04T19:33:00.729Z,78.80
2018-11-04T19:35:28.680Z,78.70
2018-11-04T19:37:57.915Z,79.00
2018-11-04T19:40:26.164Z,79.00
2018-11-04T19:42:54.283Z,79.00
2018-11-04T19:45:22.775Z,78.80
2018-11-04T19:47:51.988Z,79.10
2018-11-04T19:50:22.227Z,78.80
2018-11-04T19:55:24.877Z,79.10
2018-11-04T19:57:57.043Z,78.80
2018-11-04T20:00:26.207Z,78.70
2018-11-04T20:02:54.558Z,78.80
2018-11-04T20:05:25.068Z,78.90
2018-11-04T20:07:53.882Z,78.80
2018-11-04T20:10:22.503Z,78.80
2018-11-04T20:12:55.667Z,78.60
2018-11-04T20:15:23.675Z,78.70
2018-11-04T20:17:52.559Z,78.90
2018-11-04T20:20:24.821Z,78.80
2018-11-04T20:22:58.515Z,78.90
2018-11-04T20:25:33.255Z,79.40
2018-11-04T20:28:06.206Z,78.70
2018-11-04T20:30:34.811Z,78.80
2018-11-04T20:33:09.241Z,78.70
2018-11-04T20:35:38.452Z,78.70
2018-11-04T20:38:06.657Z,78.70
2018-11-04T20:40:40.792Z,78.70
2018-11-04T20:43:09.063Z,78.70
2018-11-04T20:45:36.904Z,78.70
2018-11-04T20:48:10.842Z,78.60
2018-11-04T20:50:43.999Z,78.70
2018-11-04T20:53:11.455Z,78.90
2018-11-04T20:55:45.557Z,78.90
2018-11-04T20:58:15.194Z,78.90
2018-11-04T21:00:42.959Z,78.80
2018-11-04T21:03:10.511Z,78.50
2018-11-04T21:05:38.116Z,78.70
2018-11-04T21:08:06.255Z,78.90
2018-11-04T21:10:34.351Z,78.60
2018-11-04T21:13:01.897Z,79.00
2018-11-04T21:15:29.433Z,78.70
2018-11-04T21:17:56.974Z,78.80
2018-11-04T21:20:25.804Z,78.90
2018-11-04T21:22:54.185Z,79.00
2018-11-04T21:25:22.883Z,78.80
2018-11-04T21:27:50.538Z,79.00
2018-11-04T21:30:18.732Z,78.90
2018-11-04T21:32:46.964Z,79.00
2018-11-04T21:35:14.609Z,79.10
2018-11-04T21:37:42.753Z,78.90
2018-11-04T21:40:10.311Z,78.70
2018-11-04T21:42:39.146Z,78.70
2018-11-04T21:45:08.394Z,78.70
2018-11-04T21:47:36.840Z,78.70
2018-11-04T21:50:05.251Z,78.80
2018-11-04T21:52:33.870Z,78.70
2018-11-04T21:55:01.508Z,78.60
2018-11-04T21:57:29.193Z,78.70
2018-11-04T21:59:57.718Z,78.60
2018-11-04T22:02:26.258Z,78.50
2018-11-04T22:04:54.397Z,78.70
2018-11-04T22:07:22.538Z,78.70
2018-11-04T22:09:50.304Z,78.90
2018-11-04T22:12:17.836Z,78.50
2018-11-04T22:14:45.408Z,78.50
2018-11-04T22:17:12.854Z,78.90
2018-11-04T22:19:40.626Z,79.00
2018-11-04T22:22:08.034Z,79.20
2018-11-04T22:24:35.510Z,78.90
2018-11-04T22:27:04.799Z,79.10
2018-11-04T22:29:32.266Z,79.00
2018-11-04T22:32:00.292Z,78.80
2018-11-04T22:34:27.773Z,79.70
2018-11-04T22:36:55.203Z,78.90
2018-11-04T22:39:22.606Z,79.20
2018-11-04T22:41:50.131Z,79.00
2018-11-04T22:44:17.614Z,79.00
2018-11-04T22:46:45.062Z,79.20
2018-11-04T22:49:12.582Z,79.20
2018-11-04T22:51:40.770Z,79.10
2018-11-04T22:54:08.314Z,79.00
2018-11-04T22:56:35.806Z,79.50
2018-11-04T22:59:03.239Z,79.10
2018-11-04T23:01:31.056Z,79.30
2018-11-04T23:03:58.492Z,79.20
2018-11-04T23:06:26.891Z,79.40
2018-11-04T23:08:54.689Z,79.40
2018-11-04T23:11:23.743Z,79.20
2018-11-04T23:13:51.215Z,79.20
2018-11-04T23:16:18.710Z,79.40
2018-11-04T23:18:46.328Z,79.50
2018-11-04T23:21:14.324Z,79.30
2018-11-04T23:23:41.967Z,79.50
2018-11-04T23:26:09.734Z,79.60
2018-11-04T23:28:37.243Z,79.60
2018-11-04T23:31:04.791Z,79.80
2018-11-04T23:33:32.228Z,79.60
2018-11-04T23:36:00.000Z,79.60
2018-11-04T23:38:28.065Z,79.30
2018-11-04T23:40:55.506Z,79.50
2018-11-04T23:43:23.064Z,79.40
2018-11-04T23:45:50.513Z,79.80
2018-11-04T23:48:17.949Z,79.70
2018-11-04T23:50:45.401Z,79.90
2018-11-04T23:53:12.951Z,80.00
2018-11-04T23:55:40.419Z,80.00
2018-11-04T23:58:09.871Z,80.00
